Time;durP1;ratioP1;P1;durP2;ratioP2;P2;SDS_P1;SDS_P2;PMS_P1;PMS_P2;Temp;Humidity;BMP_temperature;BMP_pressure;BME280_temperature;BME280_humidity;BME280_pressure;Samples;Min_cycle;Max_cycle;Signal;HPM_P1;HPM_P2
2023/01/17 00:00:33;;;;;;;;;;;;;;;;;;5072083;28;19919;-55
2023/01/17 00:02:59;;;;;;;;;;;;;;;;;;5072465;28;20277;-56
2023/01/17 00:10:57;;;;;;;;;;;;;;;;;;5072309;28;20387;-53
2023/01/17 00:13:22;;;;;;;;;;;;;;;;;;5072240;28;19913;-55
2023/01/17 00:15:48;;;;;;;;;;;;;;;;;;5072250;28;20306;-56
2023/01/17 00:26:28;;;;;;;;;;;;;;;;;;5072204;28;21618;-56
2023/01/17 01:35:38;;;;;;;;;;;;;;;;;;5071521;28;19919;-53
2023/01/17 01:38:04;;;;;;;;;;;;;;;;;;5070011;28;20010;-56
2023/01/17 01:43:14;;;;;;;;;;;;;;;;;;5062207;28;19969;-52
2023/01/17 01:45:40;;;;;;;;;;;;;;;;;;5054064;28;20339;-56
2023/01/17 01:48:06;;;;;;;;;;;;;;;;;;5053929;28;19912;-55
2023/01/17 01:50:32;;;;;;;;;;;;;;;;;;5065362;28;19920;-56
2023/01/17 01:52:58;;;;;;;;;;;;;;;;;;5074386;28;19912;-55
2023/01/17 01:55:24;;;;;;;;;;;;;;;;;;5073577;28;19923;-54
2023/01/17 01:57:50;;;;;;;;;;;;;;;;;;5074982;28;19912;-53
2023/01/17 02:00:16;;;;;;;;;;;;;;;;;;5074496;28;20341;-53
2023/01/17 02:02:42;;;;;;;;;;;;;;;;;;5074756;28;20377;-55
2023/01/17 02:05:08;;;;;;;;;;;;;;;;;;5074722;28;19959;-53
2023/01/17 02:10:20;;;;;;;;;;;;;;;;;;5074567;28;19919;-56
2023/01/17 02:12:46;;;;;;;;;;;;;;;;;;5074486;28;19913;-56
2023/01/17 02:15:12;;;;;;;;;;;;;;;;;;5074435;28;19920;-53
2023/01/17 02:17:38;;;;;;;;;;;;;;;;;;5074792;28;19916;-56
2023/01/17 02:20:03;;;;;;;;;;;;;;;;;;5074250;28;19946;-55
2023/01/17 02:22:29;;;;;;;;;;;;;;;;;;5073776;28;19916;-53
2023/01/17 02:24:55;;;;;;;;;;;;;;;;;;5074389;28;20369;-54
2023/01/17 02:27:21;;;;;;;;;;;;;;;;;;5074864;28;19908;-54
2023/01/17 02:29:47;;;;;;;;;;;;;;;;;;5072529;28;19912;-55
2023/01/17 02:32:13;;;;;;;;;;;;;;;;;;5074307;28;20399;-56
2023/01/17 02:34:39;;;;;;;;;;;;;;;;;;5073945;28;19912;-52
2023/01/17 02:37:05;;;;;;;;;;;;;;;;;;5074208;28;19920;-55
2023/01/17 02:39:31;;;;;;;;;;;;;;;;;;5073796;28;19912;-55
2023/01/17 02:41:56;;;;;;;;;;;;;;;;;;5074293;28;19914;-55
2023/01/17 02:44:22;;;;;;;;;;;;;;;;;;5074051;28;20369;-52
2023/01/17 02:46:48;;;;;;;;;;;;;;;;;;5072996;28;19916;-54
2023/01/17 02:49:14;;;;;;;;;;;;;;;;;;5074020;28;19912;-53
2023/01/17 02:51:40;;;;;;;;;;;;;;;;;;5074062;28;20000;-55
2023/01/17 02:54:06;;;;;;;;;;;;;;;;;;5073407;28;20269;-52
2023/01/17 02:56:32;;;;;;;;;;;;;;;;;;5114656;22;20396;-60
2023/01/17 02:58:58;;;;;;;;;;;;;;;;;;5073378;28;19908;-61
2023/01/17 03:01:24;;;;;;;;;;;;;;;;;;5074036;28;19908;-58
2023/01/17 03:03:50;;;;;;;;;;;;;;;;;;5073726;28;20283;-60
2023/01/17 03:06:16;;;;;;;;;;;;;;;;;;5073712;28;19927;-60
2023/01/17 03:08:42;;;;;;;;;;;;;;;;;;5059651;28;20000;-60
2023/01/17 03:11:08;;;;;;;;;;;;;;;;;;5047115;28;19932;-61
2023/01/17 03:13:34;;;;;;;;;;;;;;;;;;5053412;28;19909;-59
2023/01/17 03:16:00;;;;;;;;;;;;;;;;;;5040845;28;20282;-60
2023/01/17 03:18:26;;;;;;;;;;;;;;;;;;5053196;28;19913;-60
2023/01/17 03:20:52;;;;;;;;;;;;;;;;;;5037332;28;20408;-60
2023/01/17 03:23:18;;;;;;;;;;;;;;;;;;5042559;28;19917;-59
2023/01/17 03:25:43;;;;;;;;;;;;;;;;;;5043356;28;19940;-58
2023/01/17 03:28:09;;;;;;;;;;;;;;;;;;5034533;28;20004;-59
2023/01/17 03:30:35;;;;;;;;;;;;;;;;;;5034815;28;19975;-60
2023/01/17 03:33:01;;;;;;;;;;;;;;;;;;5037278;28;19913;-60
2023/01/17 03:35:27;;;;;;;;;;;;;;;;;;5065343;28;20369;-60
2023/01/17 03:37:53;;;;;;;;;;;;;;;;;;5073413;28;19915;-59
2023/01/17 03:40:19;;;;;;;;;;;;;;;;;;5053687;28;19909;-61
2023/01/17 03:42:45;;;;;;;;;;;;;;;;;;5053260;28;20281;-59
2023/01/17 03:45:11;;;;;;;;;;;;;;;;;;5052348;28;19967;-61
2023/01/17 03:47:37;;;;;;;;;;;;;;;;;;5052846;28;19999;-60
2023/01/17 03:50:03;;;;;;;;;;;;;;;;;;5051540;28;19935;-60
2023/01/17 03:52:29;;;;;;;;;;;;;;;;;;5042180;28;19913;-60
2023/01/17 03:54:55;;;;;;;;;;;;;;;;;;5040184;28;19963;-58
2023/01/17 03:57:21;;;;;;;;;;;;;;;;;;5053186;28;19917;-58
2023/01/17 03:59:47;;;;;;;;;;;;;;;;;;5051313;28;20011;-60
2023/01/17 04:02:13;;;;;;;;;;;;;;;;;;5051400;28;19958;-58
2023/01/17 04:04:39;;;;;;;;;;;;;;;;;;5049243;28;19917;-60
2023/01/17 04:07:05;;;;;;;;;;;;;;;;;;5040958;28;20325;-60
2023/01/17 04:09:32;;;;;;;;;;;;;;;;;;5032589;28;19913;-60
2023/01/17 04:11:58;;;;;;;;;;;;;;;;;;5047648;28;19991;-57
2023/01/17 04:14:24;;;;;;;;;;;;;;;;;;5052647;28;19944;-60
2023/01/17 04:16:50;;;;;;;;;;;;;;;;;;5044803;28;19996;-60
2023/01/17 04:19:17;;;;;;;;;;;;;;;;;;5059660;28;19977;-60
2023/01/17 04:21:43;;;;;;;;;;;;;;;;;;5066788;28;20046;-56
2023/01/17 04:24:09;;;;;;;;;;;;;;;;;;5072304;28;20459;-58
2023/01/17 04:26:34;;;;;;;;;;;;;;;;;;5058806;28;19991;-60
2023/01/17 04:29:00;;;;;;;;;;;;;;;;;;5052229;28;20012;-60
2023/01/17 04:31:26;;;;;;;;;;;;;;;;;;5040846;28;19916;-59
2023/01/17 04:33:52;;;;;;;;;;;;;;;;;;5032339;28;19913;-58
2023/01/17 04:36:18;;;;;;;;;;;;;;;;;;5032239;28;19913;-59
2023/01/17 04:38:44;;;;;;;;;;;;;;;;;;5049465;28;19913;-61
2023/01/17 04:41:10;;;;;;;;;;;;;;;;;;5044018;28;20020;-60
2023/01/17 04:43:36;;;;;;;;;;;;;;;;;;5030893;28;19913;-60
2023/01/17 04:46:03;;;;;;;;;;;;;;;;;;5033227;28;20290;-59
2023/01/17 04:48:30;;;;;;;;;;;;;;;;;;5037497;28;19913;-60
2023/01/17 04:50:56;;;;;;;;;;;;;;;;;;5052577;28;19909;-60
2023/01/17 04:53:22;;;;;;;;;;;;;;;;;;5052234;28;20388;-59
2023/01/17 04:55:47;;;;;;;;;;;;;;;;;;5051822;28;19924;-60
2023/01/17 04:58:13;;;;;;;;;;;;;;;;;;5051910;28;19915;-61
2023/01/17 05:00:39;;;;;;;;;;;;;;;;;;5051546;28;19936;-61
2023/01/17 05:03:06;;;;;;;;;;;;;;;;;;5051927;28;19924;-61
2023/01/17 05:05:31;;;;;;;;;;;;;;;;;;5051868;28;20369;-60
2023/01/17 05:07:57;;;;;;;;;;;;;;;;;;5051864;28;19916;-59
2023/01/17 05:10:23;;;;;;;;;;;;;;;;;;5051726;28;19915;-60
2023/01/17 05:12:49;;;;;;;;;;;;;;;;;;5051904;28;20494;-58
2023/01/17 05:15:15;;;;;;;;;;;;;;;;;;5051913;28;19913;-59
2023/01/17 05:17:41;;;;;;;;;;;;;;;;;;5054100;28;19909;-59
2023/01/17 05:20:07;;;;;;;;;;;;;;;;;;5054867;28;19909;-60
2023/01/17 05:22:33;;;;;;;;;;;;;;;;;;5055741;28;20315;-60
2023/01/17 05:24:59;;;;;;;;;;;;;;;;;;5055732;28;19954;-60
2023/01/17 05:27:25;;;;;;;;;;;;;;;;;;5055763;28;19943;-61
2023/01/17 05:29:51;;;;;;;;;;;;;;;;;;5055442;28;19931;-60
2023/01/17 05:32:17;;;;;;;;;;;;;;;;;;5055656;28;20373;-59
2023/01/17 05:34:43;;;;;;;;;;;;;;;;;;5055627;28;19909;-61
2023/01/17 05:37:09;;;;;;;;;;;;;;;;;;5055661;28;19915;-61
2023/01/17 05:39:34;;;;;;;;;;;;;;;;;;5055408;28;20277;-60
2023/01/17 05:42:00;;;;;;;;;;;;;;;;;;5055461;28;19913;-58
2023/01/17 05:44:26;;;;;;;;;;;;;;;;;;5055208;28;19916;-59
2023/01/17 05:46:53;;;;;;;;;;;;;;;;;;5055359;28;19915;-61
2023/01/17 05:49:19;;;;;;;;;;;;;;;;;;5055418;28;19912;-61
2023/01/17 05:51:44;;;;;;;;;;;;;;;;;;5054042;28;19909;-60
2023/01/17 05:54:10;;;;;;;;;;;;;;;;;;5055249;28;20385;-59
2023/01/17 05:56:36;;;;;;;;;;;;;;;;;;5054934;28;19923;-58
2023/01/17 05:59:02;;;;;;;;;;;;;;;;;;5053403;28;19905;-60
2023/01/17 06:01:28;;;;;;;;;;;;;;;;;;5055063;28;19909;-60
2023/01/17 06:03:54;;;;;;;;;;;;;;;;;;5053698;28;19912;-58
2023/01/17 06:06:20;;;;;;;;;;;;;;;;;;5054908;28;19959;-59
2023/01/17 06:08:46;;;;;;;;;;;;;;;;;;5054809;28;19909;-61
2023/01/17 06:11:12;;;;;;;;;;;;;;;;;;5054952;28;20270;-60
2023/01/17 06:13:38;;;;;;;;;;;;;;;;;;5054696;28;19909;-60
2023/01/17 06:16:04;;;;;;;;;;;;;;;;;;5054613;28;19948;-60
2023/01/17 06:18:30;;;;;;;;;;;;;;;;;;5054440;28;20015;-60
2023/01/17 06:20:56;;;;;;;;;;;;;;;;;;5054732;28;19999;-59
2023/01/17 06:23:21;;;;;;;;;;;;;;;;;;5054645;28;19912;-60
2023/01/17 06:25:47;;;;;;;;;;;;;;;;;;5053305;28;20377;-60
2023/01/17 06:28:13;;;;;;;;;;;;;;;;;;5052896;28;19916;-61
2023/01/17 06:30:39;;;;;;;;;;;;;;;;;;5053809;28;19909;-60
2023/01/17 06:33:05;;;;;;;;;;;;;;;;;;5054586;28;20396;-61
2023/01/17 06:35:31;;;;;;;;;;;;;;;;;;5053092;28;19909;-61
2023/01/17 06:37:58;;;;;;;;;;;;;;;;;;5054434;28;19916;-61
2023/01/17 06:40:24;;;;;;;;;;;;;;;;;;5054374;28;19909;-58
2023/01/17 06:42:50;;;;;;;;;;;;;;;;;;5054272;28;19924;-59
2023/01/17 06:45:16;;;;;;;;;;;;;;;;;;5054272;28;19916;-61
2023/01/17 06:47:42;;;;;;;;;;;;;;;;;;5053132;28;20270;-60
2023/01/17 06:50:08;;;;;;;;;;;;;;;;;;5054418;28;19916;-60
2023/01/17 06:52:34;;;;;;;;;;;;;;;;;;5054142;28;19905;-60
2023/01/17 06:55:00;;;;;;;;;;;;;;;;;;5053860;28;20361;-61
2023/01/17 06:57:25;;;;;;;;;;;;;;;;;;5054018;28;19948;-60
2023/01/17 06:59:51;;;;;;;;;;;;;;;;;;5053880;28;20419;-60
2023/01/17 07:02:17;;;;;;;;;;;;;;;;;;5053975;28;19958;-61
2023/01/17 07:04:43;;;;;;;;;;;;;;;;;;5053923;28;19913;-60
2023/01/17 07:07:09;;;;;;;;;;;;;;;;;;5053941;28;20293;-58
2023/01/17 07:09:35;;;;;;;;;;;;;;;;;;5053667;28;19916;-61
2023/01/17 07:12:01;;;;;;;;;;;;;;;;;;5052480;28;19908;-61
2023/01/17 07:14:27;;;;;;;;;;;;;;;;;;5053693;28;19916;-61
2023/01/17 07:16:53;;;;;;;;;;;;;;;;;;5053677;28;19932;-61
2023/01/17 07:19:19;;;;;;;;;;;;;;;;;;5053578;28;20270;-61
2023/01/17 07:21:45;;;;;;;;;;;;;;;;;;5054070;28;19916;-61
2023/01/17 07:24:10;;;;;;;;;;;;;;;;;;5053356;28;20343;-61
2023/01/17 07:26:37;;;;;;;;;;;;;;;;;;5053728;28;19955;-61
2023/01/17 07:29:03;;;;;;;;;;;;;;;;;;5053499;28;19909;-52
2023/01/17 07:31:32;;;;;;;;;;;;;;;;;;5053490;28;19911;-53
2023/01/17 07:33:58;;;;;;;;;;;;;;;;;;5053629;28;19988;-58
2023/01/17 07:36:24;;;;;;;;;;;;;;;;;;5053227;28;19951;-58
2023/01/17 07:38:50;;;;;;;;;;;;;;;;;;5052974;28;19960;-58
2023/01/17 07:41:16;;;;;;;;;;;;;;;;;;5053337;28;20008;-59
2023/01/17 07:43:42;;;;;;;;;;;;;;;;;;5053149;28;20011;-61
2023/01/17 07:46:10;;;;;;;;;;;;;;;;;;5052265;28;21659;-60
2023/01/17 07:48:36;;;;;;;;;;;;;;;;;;5051695;28;19909;-59
2023/01/17 07:51:02;;;;;;;;;;;;;;;;;;5051779;28;19908;-60
2023/01/17 07:53:28;;;;;;;;;;;;;;;;;;5051595;28;19908;-60
2023/01/17 07:55:54;;;;;;;;;;;;;;;;;;5052703;28;19952;-59
2023/01/17 07:58:20;;;;;;;;;;;;;;;;;;5052934;28;20102;-59
2023/01/17 08:00:45;;;;;;;;;;;;;;;;;;5052911;28;19952;-61
2023/01/17 08:03:12;;;;;;;;;;;;;;;;;;5052778;28;20396;-59
2023/01/17 08:05:38;;;;;;;;;;;;;;;;;;5052749;28;19916;-61
2023/01/17 08:08:04;;;;;;;;;;;;;;;;;;5052437;28;19908;-60
2023/01/17 08:10:30;;;;;;;;;;;;;;;;;;5052571;28;19931;-61
2023/01/17 08:12:56;;;;;;;;;;;;;;;;;;5051350;28;19916;-61
2023/01/17 08:15:22;;;;;;;;;;;;;;;;;;5052540;28;19916;-58
2023/01/17 08:17:48;;;;;;;;;;;;;;;;;;5051213;28;19908;-61
2023/01/17 08:20:14;;;;;;;;;;;;;;;;;;5052261;28;19909;-60
2023/01/17 08:22:40;;;;;;;;;;;;;;;;;;5052334;28;20005;-59
2023/01/17 08:25:06;;;;;;;;;;;;;;;;;;5052461;28;19912;-59
2023/01/17 08:27:32;;;;;;;;;;;;;;;;;;5052464;28;19909;-60
2023/01/17 08:29:58;;;;;;;;;;;;;;;;;;5052232;28;19912;-59
2023/01/17 08:32:23;;;;;;;;;;;;;;;;;;5052373;28;19909;-60
2023/01/17 08:34:49;;;;;;;;;;;;;;;;;;5052285;28;19909;-58
2023/01/17 08:37:15;;;;;;;;;;;;;;;;;;5052216;28;20308;-60
2023/01/17 08:39:41;;;;;;;;;;;;;;;;;;5052051;28;20265;-61
2023/01/17 08:42:07;;;;;;;;;;;;;;;;;;5052097;28;19958;-60
2023/01/17 08:44:33;;;;;;;;;;;;;;;;;;5051888;28;19913;-60
2023/01/17 08:46:59;;;;;;;;;;;;;;;;;;5052440;28;19992;-58
2023/01/17 08:49:25;;;;;;;;;;;;;;;;;;5052035;28;19957;-61
2023/01/17 08:51:51;;;;;;;;;;;;;;;;;;5051282;28;20209;-60
2023/01/17 08:54:17;;;;;;;;;;;;;;;;;;5051928;28;19953;-55
2023/01/17 08:56:45;;;;;;;;;;;;;;;;;;5075775;22;19925;-62
2023/01/17 08:59:11;;;;;;;;;;;;;;;;;;5051399;28;19909;-58
2023/01/17 09:01:40;;;;;;;;;;;;;;;;;;5051959;28;20051;-62
2023/01/17 09:04:06;;;;;;;;;;;;;;;;;;5050674;28;19921;-61
2023/01/17 09:06:32;;;;;;;;;;;;;;;;;;5051821;28;19919;-62
2023/01/17 09:08:58;;;;;;;;;;;;;;;;;;5050428;28;19998;-62
2023/01/17 09:11:24;;;;;;;;;;;;;;;;;;5052192;28;19909;-61
2023/01/17 09:13:50;;;;;;;;;;;;;;;;;;5051840;28;19916;-62
2023/01/17 09:16:16;;;;;;;;;;;;;;;;;;5051839;28;19975;-61
2023/01/17 09:18:42;;;;;;;;;;;;;;;;;;5051561;28;19908;-61
2023/01/17 09:21:07;;;;;;;;;;;;;;;;;;5051821;28;20325;-61
2023/01/17 09:23:33;;;;;;;;;;;;;;;;;;5051799;28;19913;-61
2023/01/17 09:25:59;;;;;;;;;;;;;;;;;;5051804;28;19909;-62
2023/01/17 09:28:25;;;;;;;;;;;;;;;;;;5051686;28;20365;-61
2023/01/17 09:30:51;;;;;;;;;;;;;;;;;;5051722;28;19915;-62
2023/01/17 09:33:17;;;;;;;;;;;;;;;;;;5051711;28;19966;-61
2023/01/17 09:35:43;;;;;;;;;;;;;;;;;;5051503;28;19970;-62
2023/01/17 09:38:09;;;;;;;;;;;;;;;;;;5051779;28;19909;-61
2023/01/17 09:40:35;;;;;;;;;;;;;;;;;;5051559;28;19908;-65
2023/01/17 09:43:02;;;;;;;;;;;;;;;;;;5051478;28;19919;-62
2023/01/17 09:45:28;;;;;;;;;;;;;;;;;;5051591;28;19915;-61
2023/01/17 09:47:54;;;;;;;;;;;;;;;;;;5051580;28;19909;-63
2023/01/17 09:50:20;;;;;;;;;;;;;;;;;;5051382;28;19913;-62
2023/01/17 09:52:46;;;;;;;;;;;;;;;;;;5051638;28;20361;-62
2023/01/17 09:55:12;;;;;;;;;;;;;;;;;;5051400;28;19919;-62
2023/01/17 09:57:37;;;;;;;;;;;;;;;;;;5051561;28;20007;-62
2023/01/17 10:00:03;;;;;;;;;;;;;;;;;;5051447;28;19909;-62
2023/01/17 10:02:29;;;;;;;;;;;;;;;;;;5051363;28;19956;-63
2023/01/17 10:04:55;;;;;;;;;;;;;;;;;;5054648;28;20003;-63
2023/01/17 10:07:21;;;;;;;;;;;;;;;;;;5055067;28;19962;-63
2023/01/17 10:09:47;;;;;;;;;;;;;;;;;;5054887;28;19912;-63
2023/01/17 10:12:13;;;;;;;;;;;;;;;;;;5055073;28;19916;-63
2023/01/17 10:14:39;;;;;;;;;;;;;;;;;;5054979;28;19916;-63
2023/01/17 10:17:05;;;;;;;;;;;;;;;;;;5054764;28;20403;-63
2023/01/17 10:19:31;;;;;;;;;;;;;;;;;;5054569;28;19909;-63
2023/01/17 10:21:57;;;;;;;;;;;;;;;;;;5054876;28;20246;-63
2023/01/17 10:24:23;;;;;;;;;;;;;;;;;;5054729;28;20435;-63
2023/01/17 10:26:49;;;;;;;;;;;;;;;;;;5054616;28;19912;-63
2023/01/17 10:29:16;;;;;;;;;;;;;;;;;;5054602;28;19909;-63
2023/01/17 10:31:42;;;;;;;;;;;;;;;;;;5054669;28;20335;-63
2023/01/17 10:34:08;;;;;;;;;;;;;;;;;;5054542;28;19913;-63
2023/01/17 10:36:34;;;;;;;;;;;;;;;;;;5054492;28;19955;-63
2023/01/17 10:39:00;;;;;;;;;;;;;;;;;;5054321;28;19915;-63
2023/01/17 10:41:26;;;;;;;;;;;;;;;;;;5054800;28;20384;-63
2023/01/17 10:43:52;;;;;;;;;;;;;;;;;;5054244;28;19912;-63
2023/01/17 10:46:17;;;;;;;;;;;;;;;;;;5053226;28;20027;-63
2023/01/17 10:48:43;;;;;;;;;;;;;;;;;;5054104;28;20463;-63
2023/01/17 10:51:10;;;;;;;;;;;;;;;;;;5054301;28;19940;-63
2023/01/17 10:53:36;;;;;;;;;;;;;;;;;;5054262;28;20288;-63
2023/01/17 10:56:02;;;;;;;;;;;;;;;;;;5053988;28;19923;-63
2023/01/17 10:58:27;;;;;;;;;;;;;;;;;;5053999;28;19915;-63
2023/01/17 11:00:53;;;;;;;;;;;;;;;;;;5054081;28;19940;-63
2023/01/17 11:03:19;;;;;;;;;;;;;;;;;;5053997;28;20004;-63
2023/01/17 11:05:45;;;;;;;;;;;;;;;;;;5054185;28;20349;-63
2023/01/17 11:08:12;;;;;;;;;;;;;;;;;;5053862;28;19917;-63
2023/01/17 11:10:38;;;;;;;;;;;;;;;;;;5053980;28;19915;-63
2023/01/17 11:13:04;;;;;;;;;;;;;;;;;;5053903;28;20448;-63
2023/01/17 11:15:30;;;;;;;;;;;;;;;;;;5053111;28;20011;-63
2023/01/17 11:17:56;;;;;;;;;;;;;;;;;;5053753;28;20339;-63
2023/01/17 11:20:22;;;;;;;;;;;;;;;;;;5053636;28;19909;-63
2023/01/17 11:22:48;;;;;;;;;;;;;;;;;;5053075;28;20381;-63
2023/01/17 11:25:14;;;;;;;;;;;;;;;;;;5051791;28;19962;-64
2023/01/17 11:27:40;;;;;;;;;;;;;;;;;;5053121;28;19913;-64
2023/01/17 11:30:08;;;;;;;;;;;;;;;;;;5052375;28;19916;-64
2023/01/17 11:32:33;;;;;;;;;;;;;;;;;;5036918;28;19935;-63
2023/01/17 11:34:59;;;;;;;;;;;;;;;;;;5052589;28;20401;-64
2023/01/17 11:37:27;;;;;;;;;;;;;;;;;;5052830;28;19913;-64
2023/01/17 11:39:53;;;;;;;;;;;;;;;;;;5053004;28;19917;-63
2023/01/17 11:42:19;;;;;;;;;;;;;;;;;;5052577;28;20004;-64
2023/01/17 11:44:45;;;;;;;;;;;;;;;;;;5052539;28;20499;-63
2023/01/17 11:47:11;;;;;;;;;;;;;;;;;;5052375;28;19913;-63
2023/01/17 11:49:37;;;;;;;;;;;;;;;;;;5051768;28;19916;-63
2023/01/17 11:52:03;;;;;;;;;;;;;;;;;;5052549;28;20007;-63
2023/01/17 11:54:30;;;;;;;;;;;;;;;;;;5053315;28;20361;-63
2023/01/17 11:56:56;;;;;;;;;;;;;;;;;;5052255;28;19962;-64
2023/01/17 11:59:22;;;;;;;;;;;;;;;;;;5052409;28;19913;-64
2023/01/17 12:01:49;;;;;;;;;;;;;;;;;;5052629;28;19913;-63
2023/01/17 12:04:15;;;;;;;;;;;;;;;;;;5052326;28;19939;-64
2023/01/17 12:06:40;;;;;;;;;;;;;;;;;;5052420;28;20278;-64
2023/01/17 12:09:06;;;;;;;;;;;;;;;;;;5052124;28;20690;-61
2023/01/17 12:11:34;;;;;;;;;;;;;;;;;;5051211;28;19940;-63
2023/01/17 12:14:00;;;;;;;;;;;;;;;;;;5052232;28;19921;-66
2023/01/17 12:16:32;;;;;;;;;;;;;;;;;;5052397;28;19920;-64
2023/01/17 12:18:58;;;;;;;;;;;;;;;;;;5052050;28;19920;-64
2023/01/17 12:21:24;;;;;;;;;;;;;;;;;;5044598;28;20297;-65
2023/01/17 12:23:50;;;;;;;;;;;;;;;;;;5051948;28;20300;-65
2023/01/17 12:26:20;;;;;;;;;;;;;;;;;;5051315;28;19912;-64
2023/01/17 12:28:46;;;;;;;;;;;;;;;;;;5050255;28;19919;-63
2023/01/17 12:31:12;;;;;;;;;;;;;;;;;;5050631;28;19913;-64
2023/01/17 12:33:38;;;;;;;;;;;;;;;;;;5051622;28;19921;-64
2023/01/17 12:36:04;;;;;;;;;;;;;;;;;;5051249;28;19919;-64
2023/01/17 12:38:29;;;;;;;;;;;;;;;;;;5051937;28;19995;-64
2023/01/17 12:40:55;;;;;;;;;;;;;;;;;;5051482;28;20011;-64
2023/01/17 12:43:21;;;;;;;;;;;;;;;;;;5051849;28;19917;-65
2023/01/17 12:45:47;;;;;;;;;;;;;;;;;;5050631;28;20198;-65
2023/01/17 12:48:13;;;;;;;;;;;;;;;;;;5051821;28;19959;-65
2023/01/17 12:50:39;;;;;;;;;;;;;;;;;;5051919;28;19917;-64
2023/01/17 12:53:05;;;;;;;;;;;;;;;;;;5051931;28;19944;-64
2023/01/17 12:55:31;;;;;;;;;;;;;;;;;;5051346;28;20369;-64
2023/01/17 12:57:57;;;;;;;;;;;;;;;;;;5051155;28;20385;-64
2023/01/17 13:00:24;;;;;;;;;;;;;;;;;;5051215;28;19913;-64
2023/01/17 13:02:50;;;;;;;;;;;;;;;;;;5051925;28;20008;-64
2023/01/17 13:05:16;;;;;;;;;;;;;;;;;;5051991;28;20003;-64
2023/01/17 13:07:42;;;;;;;;;;;;;;;;;;5051666;28;19978;-64
2023/01/17 13:10:08;;;;;;;;;;;;;;;;;;5051374;28;19951;-64
2023/01/17 13:12:33;;;;;;;;;;;;;;;;;;5050623;28;20298;-64
2023/01/17 13:15:01;;;;;;;;;;;;;;;;;;5051731;28;20309;-64
2023/01/17 13:17:27;;;;;;;;;;;;;;;;;;5051311;28;20399;-64
2023/01/17 13:19:53;;;;;;;;;;;;;;;;;;5051533;28;19913;-65
2023/01/17 13:22:19;;;;;;;;;;;;;;;;;;5051658;28;19919;-63
2023/01/17 13:24:45;;;;;;;;;;;;;;;;;;5051211;28;20019;-63
2023/01/17 13:27:10;;;;;;;;;;;;;;;;;;5051560;28;19960;-63
2023/01/17 13:29:36;;;;;;;;;;;;;;;;;;5051649;28;19995;-63
2023/01/17 13:32:02;;;;;;;;;;;;;;;;;;5051425;28;20353;-63
2023/01/17 13:34:28;;;;;;;;;;;;;;;;;;5051570;28;19919;-63
2023/01/17 13:36:56;;;;;;;;;;;;;;;;;;5051735;28;19915;-62
2023/01/17 13:39:22;;;;;;;;;;;;;;;;;;5053749;28;19936;-63
2023/01/17 13:41:48;;;;;;;;;;;;;;;;;;5055760;28;19909;-63
2023/01/17 13:44:20;;;;;;;;;;;;;;;;;;5055363;28;20435;-62
2023/01/17 13:46:46;;;;;;;;;;;;;;;;;;5053864;28;19912;-63
2023/01/17 13:49:12;;;;;;;;;;;;;;;;;;5054749;28;19920;-62
2023/01/17 13:51:38;;;;;;;;;;;;;;;;;;5055259;28;19916;-63
2023/01/17 13:54:04;;;;;;;;;;;;;;;;;;5054867;28;20267;-63
2023/01/17 13:56:30;;;;;;;;;;;;;;;;;;5054681;28;20007;-62
2023/01/17 13:58:57;;;;;;;;;;;;;;;;;;5054976;28;20001;-63
2023/01/17 14:01:23;;;;;;;;;;;;;;;;;;5053767;28;20006;-63
2023/01/17 14:03:49;;;;;;;;;;;;;;;;;;5053018;28;20029;-62
2023/01/17 14:06:15;;;;;;;;;;;;;;;;;;5051975;28;20005;-62
2023/01/17 14:08:40;;;;;;;;;;;;;;;;;;5053804;28;20007;-62
2023/01/17 14:11:10;;;;;;;;;;;;;;;;;;5064442;28;20002;-61
2023/01/17 14:13:37;;;;;;;;;;;;;;;;;;5065042;28;19909;-62
2023/01/17 14:16:03;;;;;;;;;;;;;;;;;;5054789;28;20396;-63
2023/01/17 14:18:29;;;;;;;;;;;;;;;;;;5054552;28;19944;-63
2023/01/17 14:20:54;;;;;;;;;;;;;;;;;;5053549;28;20022;-62
2023/01/17 14:23:20;;;;;;;;;;;;;;;;;;5053281;28;19982;-63
2023/01/17 14:25:47;;;;;;;;;;;;;;;;;;5054467;28;19915;-61
2023/01/17 14:28:13;;;;;;;;;;;;;;;;;;5054488;28;20205;-62
2023/01/17 14:30:39;;;;;;;;;;;;;;;;;;5054610;28;19908;-62
2023/01/17 14:33:07;;;;;;;;;;;;;;;;;;5054647;28;19909;-62
2023/01/17 14:35:33;;;;;;;;;;;;;;;;;;5054378;28;19909;-62
2023/01/17 14:38:04;;;;;;;;;;;;;;;;;;5054686;28;19913;-62
2023/01/17 14:40:30;;;;;;;;;;;;;;;;;;5053855;28;20380;-61
2023/01/17 14:42:56;;;;;;;;;;;;;;;;;;5051641;28;19938;-67
2023/01/17 14:45:22;;;;;;;;;;;;;;;;;;5040676;28;19920;-66
2023/01/17 14:47:50;;;;;;;;;;;;;;;;;;5039696;28;20393;-67
2023/01/17 14:50:16;;;;;;;;;;;;;;;;;;5043358;28;19999;-62
2023/01/17 14:52:43;;;;;;;;;;;;;;;;;;5045922;28;20008;-62
2023/01/17 14:55:09;;;;;;;;;;;;;;;;;;5077480;22;19919;-57
2023/01/17 14:57:35;;;;;;;;;;;;;;;;;;5070364;28;19920;-57
2023/01/17 15:00:02;;;;;;;;;;;;;;;;;;5073404;28;19908;-58
2023/01/17 15:02:28;;;;;;;;;;;;;;;;;;5054818;28;20339;-61
2023/01/17 15:04:54;;;;;;;;;;;;;;;;;;5071143;28;19921;-60
2023/01/17 15:07:20;;;;;;;;;;;;;;;;;;5080827;28;19912;-59
2023/01/17 15:09:46;;;;;;;;;;;;;;;;;;5060079;28;19912;-61
2023/01/17 15:12:15;;;;;;;;;;;;;;;;;;5073826;28;19908;-60
2023/01/17 15:14:40;;;;;;;;;;;;;;;;;;5073601;28;20383;-67
2023/01/17 15:17:06;;;;;;;;;;;;;;;;;;5073458;28;19916;-63
2023/01/17 15:19:32;;;;;;;;;;;;;;;;;;5073526;28;19908;-63
2023/01/17 15:21:58;;;;;;;;;;;;;;;;;;5073951;28;20101;-61
2023/01/17 15:24:24;;;;;;;;;;;;;;;;;;5072327;28;19912;-59
2023/01/17 15:26:50;;;;;;;;;;;;;;;;;;5072301;28;19912;-60
2023/01/17 15:29:16;;;;;;;;;;;;;;;;;;5073378;28;19909;-59
2023/01/17 15:31:42;;;;;;;;;;;;;;;;;;5073771;28;19908;-62
2023/01/17 15:34:08;;;;;;;;;;;;;;;;;;5073380;28;19931;-61
2023/01/17 15:36:34;;;;;;;;;;;;;;;;;;5073162;28;19908;-61
2023/01/17 15:39:00;;;;;;;;;;;;;;;;;;5073185;28;19908;-56
2023/01/17 15:41:26;;;;;;;;;;;;;;;;;;5073397;28;19915;-57
2023/01/17 15:43:56;;;;;;;;;;;;;;;;;;5073201;28;20395;-62
2023/01/17 15:46:22;;;;;;;;;;;;;;;;;;5073034;28;20314;-61
2023/01/17 15:48:49;;;;;;;;;;;;;;;;;;5072946;28;19908;-62
2023/01/17 15:51:15;;;;;;;;;;;;;;;;;;5073152;28;20274;-62
2023/01/17 15:53:41;;;;;;;;;;;;;;;;;;5073044;28;19915;-61
2023/01/17 15:56:07;;;;;;;;;;;;;;;;;;5072825;28;19917;-61
2023/01/17 15:58:33;;;;;;;;;;;;;;;;;;5072837;28;20304;-62
2023/01/17 16:00:59;;;;;;;;;;;;;;;;;;5072692;28;19917;-63
2023/01/17 16:03:25;;;;;;;;;;;;;;;;;;5071464;28;20273;-61
2023/01/17 16:05:50;;;;;;;;;;;;;;;;;;5072876;28;19914;-62
2023/01/17 16:08:16;;;;;;;;;;;;;;;;;;5071343;28;20353;-60
2023/01/17 16:10:42;;;;;;;;;;;;;;;;;;5072817;28;19908;-60
2023/01/17 16:13:08;;;;;;;;;;;;;;;;;;5072758;28;20276;-58
2023/01/17 16:15:34;;;;;;;;;;;;;;;;;;5072455;28;20337;-59
2023/01/17 16:18:00;;;;;;;;;;;;;;;;;;5072842;28;19955;-60
2023/01/17 16:20:26;;;;;;;;;;;;;;;;;;5072437;28;19940;-57
2023/01/17 16:22:52;;;;;;;;;;;;;;;;;;5072499;28;19995;-60
2023/01/17 16:25:18;;;;;;;;;;;;;;;;;;5072429;28;20331;-60
2023/01/17 16:27:44;;;;;;;;;;;;;;;;;;5071225;28;19908;-60
2023/01/17 16:30:09;;;;;;;;;;;;;;;;;;5072175;28;19952;-62
2023/01/17 16:32:35;;;;;;;;;;;;;;;;;;5072324;28;19944;-61
2023/01/17 16:35:01;;;;;;;;;;;;;;;;;;5072395;28;19919;-61
2023/01/17 16:37:27;;;;;;;;;;;;;;;;;;5072248;28;19915;-61
2023/01/17 16:39:53;;;;;;;;;;;;;;;;;;5072098;28;19962;-60
2023/01/17 16:42:19;;;;;;;;;;;;;;;;;;5072205;28;20001;-57
2023/01/17 16:44:45;;;;;;;;;;;;;;;;;;5071980;28;20403;-61
2023/01/17 16:47:11;;;;;;;;;;;;;;;;;;5071933;28;19914;-61
2023/01/17 16:49:37;;;;;;;;;;;;;;;;;;5071856;28;20356;-63
2023/01/17 16:52:03;;;;;;;;;;;;;;;;;;5072085;28;19909;-60
2023/01/17 16:54:29;;;;;;;;;;;;;;;;;;5070742;28;19908;-60
2023/01/17 16:56:55;;;;;;;;;;;;;;;;;;5071692;28;19975;-60
2023/01/17 16:59:20;;;;;;;;;;;;;;;;;;5071484;28;19907;-61
2023/01/17 17:01:48;;;;;;;;;;;;;;;;;;5071745;28;19915;-61
2023/01/17 17:04:13;;;;;;;;;;;;;;;;;;5071741;28;19919;-61
2023/01/17 17:06:40;;;;;;;;;;;;;;;;;;5070735;28;19913;-62
2023/01/17 17:09:06;;;;;;;;;;;;;;;;;;5062299;28;19966;-61
2023/01/17 17:11:32;;;;;;;;;;;;;;;;;;5062531;28;20073;-61
2023/01/17 17:13:57;;;;;;;;;;;;;;;;;;5062675;28;19909;-62
2023/01/17 17:16:25;;;;;;;;;;;;;;;;;;5064471;28;19920;-61
2023/01/17 17:18:51;;;;;;;;;;;;;;;;;;5065664;28;19912;-62
2023/01/17 17:21:17;;;;;;;;;;;;;;;;;;5063833;28;19912;-60
2023/01/17 17:23:42;;;;;;;;;;;;;;;;;;5075072;28;20403;-62
2023/01/17 17:26:08;;;;;;;;;;;;;;;;;;5075779;28;19919;-61
2023/01/17 17:28:34;;;;;;;;;;;;;;;;;;5075559;28;19909;-62
2023/01/17 17:31:00;;;;;;;;;;;;;;;;;;5074511;28;19995;-61
2023/01/17 17:33:26;;;;;;;;;;;;;;;;;;5076165;28;19995;-58
2023/01/17 17:35:52;;;;;;;;;;;;;;;;;;5075547;28;20003;-58
2023/01/17 17:38:18;;;;;;;;;;;;;;;;;;5075424;28;20007;-61
2023/01/17 17:40:45;;;;;;;;;;;;;;;;;;5075426;28;19946;-61
2023/01/17 17:43:11;;;;;;;;;;;;;;;;;;5074279;28;19913;-61
2023/01/17 17:45:36;;;;;;;;;;;;;;;;;;5075399;28;19908;-62
2023/01/17 17:48:02;;;;;;;;;;;;;;;;;;5075410;28;20284;-61
2023/01/17 17:50:28;;;;;;;;;;;;;;;;;;5075270;28;19909;-59
2023/01/17 17:52:54;;;;;;;;;;;;;;;;;;5075319;28;19905;-61
2023/01/17 17:55:20;;;;;;;;;;;;;;;;;;5075105;28;19908;-59
2023/01/17 17:57:46;;;;;;;;;;;;;;;;;;5075137;28;19913;-62
2023/01/17 18:00:12;;;;;;;;;;;;;;;;;;5074933;28;19908;-61
2023/01/17 18:02:38;;;;;;;;;;;;;;;;;;5075137;28;19904;-62